METAR AND TAF INFORMATION
METAR FOR LFBH
ADDS - METARS form results

(0346 UTC 30 March 2020)
Data provider http://aviationweather.gov/metar/data/
 
METAR text: LFBH 300330Z AUTO 03017KT CAVOK 03/M05 Q1025
Conditions at: LFBH (LA ROCHELLE/LALE, FR) observed 0330 UTC 30 March 2020
Temperature: 3.0°C (37°F)
Dewpoint: -5.0°C (23°F) [RH = 56%]
Pressure (altimeter): 30.27 inches Hg (1025.0 mb)
Winds: from the NNE (30 degrees) at 20 MPH (17 knots; 8.7 m/s)
Visibility: 6 or more miles (10+ km)
Ceiling: ceiling and visibility are OK
Clouds: unknown
Weather: no significant weather observed at this time

METAR text: LFBH 300300Z AUTO 03017KT CAVOK 03/M05 Q1025
Conditions at: LFBH (LA ROCHELLE/LALE, FR) observed 0300 UTC 30 March 2020
Temperature: 3.0°C (37°F)
Dewpoint: -5.0°C (23°F) [RH = 56%]
Pressure (altimeter): 30.27 inches Hg (1025.0 mb)
Winds: from the NNE (30 degrees) at 20 MPH (17 knots; 8.7 m/s)
Visibility: 6 or more miles (10+ km)
Ceiling: ceiling and visibility are OK
Clouds: unknown
Weather: no significant weather observed at this time

 AIRPORT MAP

 RUNWAY INFORMATION
Runway 10 Runway length 7398 ft Runway width 148 ft
Runway elevation 59 ft Runway displaced threshold 1033 ft Runway heading 93
Runway 28 Runway length 7398 ft Runway width 148 ft
Runway elevation 74 ft Runway displaced threshold 1532 ft Runway heading 273

 AIRPORT FREQUENCIES
Type APP Name LA ROCHELL Frequency 124.2 MHZ
Type ATIS Name LA ROCHELL Frequency 126.875 MHZ
Type TWR Name LA ROCHELL Frequency 118 MHZ

 AIRPORT NEAR NAVIGATION AIDS



Powered by Virtual Airlines Manager [v2.6.2]